sensor_id;sensor_type;location;lat;lon;timestamp;pressure;altitude;pressure_sealevel;temperature;humidity
65157;BME280;52745;49.794;18.258;2022-12-07T00:01:20;-15996.00;;;2.19;100.00
65157;BME280;52745;49.794;18.258;2022-12-07T00:03:48;-15995.72;;;2.18;100.00
65157;BME280;52745;49.794;18.258;2022-12-07T00:06:16;-15997.94;;;2.26;100.00
65157;BME280;52745;49.794;18.258;2022-12-07T00:08:44;-15998.47;;;2.28;100.00
65157;BME280;52745;49.794;18.258;2022-12-07T00:11:18;-15996.84;;;2.22;100.00
65157;BME280;52745;49.794;18.258;2022-12-07T00:13:47;-15995.88;;;2.19;100.00
65157;BME280;52745;49.794;18.258;2022-12-07T00:16:18;-15995.88;;;2.19;100.00
65157;BME280;52745;49.794;18.258;2022-12-07T00:18:46;-15997.66;;;2.25;100.00
65157;BME280;52745;49.794;18.258;2022-12-07T00:21:16;-15996.28;;;2.20;100.00
65157;BME280;52745;49.794;18.258;2022-12-07T00:23:44;-15995.72;;;2.18;100.00
65157;BME280;52745;49.794;18.258;2022-12-07T00:26:14;-15995.47;;;2.17;100.00
65157;BME280;52745;49.794;18.258;2022-12-07T00:28:45;-15995.47;;;2.17;100.00
65157;BME280;52745;49.794;18.258;2022-12-07T00:31:15;-15996.41;;;2.21;100.00
65157;BME280;52745;49.794;18.258;2022-12-07T00:33:43;-15995.72;;;2.18;100.00
65157;BME280;52745;49.794;18.258;2022-12-07T00:36:12;-15996.41;;;2.21;100.00
65157;BME280;52745;49.794;18.258;2022-12-07T00:38:39;-15997.25;;;2.24;100.00
65157;BME280;52745;49.794;18.258;2022-12-07T00:41:11;-15995.72;;;2.18;100.00
65157;BME280;52745;49.794;18.258;2022-12-07T00:43:39;-15996.16;;;2.20;100.00
65157;BME280;52745;49.794;18.258;2022-12-07T00:46:06;-15994.78;;;2.15;100.00
65157;BME280;52745;49.794;18.258;2022-12-07T00:48:34;-15996.97;;;2.23;100.00
65157;BME280;52745;49.794;18.258;2022-12-07T00:51:00;-15999.03;;;2.31;100.00
65157;BME280;52745;49.794;18.258;2022-12-07T00:53:27;-15999.56;;;2.33;100.00
65157;BME280;52745;49.794;18.258;2022-12-07T00:55:54;-16003.13;;;2.46;100.00
65157;BME280;52745;49.794;18.258;2022-12-07T00:58:23;-16003.69;;;2.48;100.00
65157;BME280;52745;49.794;18.258;2022-12-07T01:00:49;-15999.56;;;2.33;100.00
65157;BME280;52745;49.794;18.258;2022-12-07T01:03:16;-15999.03;;;2.31;100.00
65157;BME280;52745;49.794;18.258;2022-12-07T01:05:53;-15998.19;;;2.27;100.00
65157;BME280;52745;49.794;18.258;2022-12-07T01:08:21;-15994.63;;;2.14;100.00
65157;BME280;52745;49.794;18.258;2022-12-07T01:10:48;-15997.66;;;2.25;100.00
65157;BME280;52745;49.794;18.258;2022-12-07T01:13:15;-15999.03;;;2.31;100.00
65157;BME280;52745;49.794;18.258;2022-12-07T01:15:43;-15998.19;;;2.27;100.00
65157;BME280;52745;49.794;18.258;2022-12-07T01:18:10;-15999.03;;;2.31;100.00
65157;BME280;52745;49.794;18.258;2022-12-07T01:20:37;-15998.34;;;2.28;100.00
65157;BME280;52745;49.794;18.258;2022-12-07T01:23:04;-15997.25;;;2.24;100.00
65157;BME280;52745;49.794;18.258;2022-12-07T01:25:30;-15997.38;;;2.24;100.00
65157;BME280;52745;49.794;18.258;2022-12-07T01:27:57;-15997.50;;;2.25;100.00
65157;BME280;52745;49.794;18.258;2022-12-07T01:30:24;-15997.66;;;2.25;100.00
65157;BME280;52745;49.794;18.258;2022-12-07T01:32:51;-15998.06;;;2.27;100.00
65157;BME280;52745;49.794;18.258;2022-12-07T01:35:17;-15998.47;;;2.28;100.00
65157;BME280;52745;49.794;18.258;2022-12-07T01:37:44;-16000.94;;;2.38;100.00
65157;BME280;52745;49.794;18.258;2022-12-07T01:40:10;-15998.88;;;2.30;100.00
65157;BME280;52745;49.794;18.258;2022-12-07T01:42:37;-15999.28;;;2.32;100.00
65157;BME280;52745;49.794;18.258;2022-12-07T01:45:38;-15997.25;;;2.24;100.00
65157;BME280;52745;49.794;18.258;2022-12-07T01:48:07;-15998.19;;;2.27;100.00
65157;BME280;52745;49.794;18.258;2022-12-07T01:50:37;-15996.56;;;2.21;100.00
65157;BME280;52745;49.794;18.258;2022-12-07T01:53:06;-15998.34;;;2.28;100.00
65157;BME280;52745;49.794;18.258;2022-12-07T01:55:37;-15997.94;;;2.26;100.00
65157;BME280;52745;49.794;18.258;2022-12-07T01:58:04;-15996.69;;;2.22;100.00
65157;BME280;52745;49.794;18.258;2022-12-07T02:00:31;-15996.28;;;2.20;100.00
65157;BME280;52745;49.794;18.258;2022-12-07T02:03:13;-15996.56;;;2.21;100.00
65157;BME280;52745;49.794;18.258;2022-12-07T02:05:43;-15995.47;;;2.17;100.00
65157;BME280;52745;49.794;18.258;2022-12-07T02:08:11;-15993.28;;;2.09;100.00
65157;BME280;52745;49.794;18.258;2022-12-07T02:10:38;-15995.06;;;2.16;100.00
65157;BME280;52745;49.794;18.258;2022-12-07T02:13:26;-15993.28;;;2.09;100.00
65157;BME280;52745;49.794;18.258;2022-12-07T02:16:25;-15992.72;;;2.07;100.00
65157;BME280;52745;49.794;18.258;2022-12-07T02:18:58;-15995.59;;;2.18;100.00
65157;BME280;52745;49.794;18.258;2022-12-07T02:21:36;-15997.09;;;2.23;100.00
65157;BME280;52745;49.794;18.258;2022-12-07T02:24:30;-15998.75;;;2.30;100.00
65157;BME280;52745;49.794;18.258;2022-12-07T02:27:25;-15997.38;;;2.24;100.00
65157;BME280;52745;49.794;18.258;2022-12-07T02:30:00;-15997.25;;;2.24;100.00
65157;BME280;52745;49.794;18.258;2022-12-07T02:38:02;-16000.13;;;2.35;100.00
65157;BME280;52745;49.794;18.258;2022-12-07T02:40:34;-15999.03;;;2.31;100.00
65157;BME280;52745;49.794;18.258;2022-12-07T02:43:07;-15999.56;;;2.33;100.00
65157;BME280;52745;49.794;18.258;2022-12-07T02:45:37;-16001.63;;;2.40;100.00
65157;BME280;52745;49.794;18.258;2022-12-07T02:48:05;-16002.59;;;2.44;100.00
65157;BME280;52745;49.794;18.258;2022-12-07T02:50:33;-15999.56;;;2.33;100.00
65157;BME280;52745;49.794;18.258;2022-12-07T02:52:59;-15998.75;;;2.30;100.00
65157;BME280;52745;49.794;18.258;2022-12-07T02:55:31;-15999.84;;;2.34;100.00
65157;BME280;52745;49.794;18.258;2022-12-07T03:03:50;-15999.84;;;2.34;100.00
65157;BME280;52745;49.794;18.258;2022-12-07T03:06:31;-16000.38;;;2.36;100.00
65157;BME280;52745;49.794;18.258;2022-12-07T03:09:13;-16001.22;;;2.39;100.00
65157;BME280;52745;49.794;18.258;2022-12-07T03:11:44;-15999.28;;;2.32;100.00
65157;BME280;52745;49.794;18.258;2022-12-07T03:16:45;-16002.16;;;2.42;100.00
65157;BME280;52745;49.794;18.258;2022-12-07T03:19:19;-16003.53;;;2.47;100.00
65157;BME280;52745;49.794;18.258;2022-12-07T03:24:21;-16005.59;;;2.55;100.00
65157;BME280;52745;49.794;18.258;2022-12-07T03:26:53;-16004.50;;;2.51;100.00
65157;BME280;52745;49.794;18.258;2022-12-07T03:29:26;-16005.19;;;2.54;100.00
65157;BME280;52745;49.794;18.258;2022-12-07T03:31:59;-16003.00;;;2.45;100.00
65157;BME280;52745;49.794;18.258;2022-12-07T03:34:34;-16001.63;;;2.40;99.73
65157;BME280;52745;49.794;18.258;2022-12-07T03:37:16;-16004.50;;;2.51;100.00
65157;BME280;52745;49.794;18.258;2022-12-07T03:39:57;-16006.81;;;2.60;99.79
65157;BME280;52745;49.794;18.258;2022-12-07T03:42:28;-16006.56;;;2.59;99.51
65157;BME280;52745;49.794;18.258;2022-12-07T03:44:56;-16007.91;;;2.64;99.16
65157;BME280;52745;49.794;18.258;2022-12-07T03:52:38;-16007.38;;;2.62;99.00
65157;BME280;52745;49.794;18.258;2022-12-07T03:55:17;-16006.81;;;2.60;99.07
65157;BME280;52745;49.794;18.258;2022-12-07T03:57:47;-16007.66;;;2.63;99.08
65157;BME280;52745;49.794;18.258;2022-12-07T04:00:15;-16006.69;;;2.59;98.92
65157;BME280;52745;49.794;18.258;2022-12-07T04:02:42;-16001.50;;;2.40;99.50
65157;BME280;52745;49.794;18.258;2022-12-07T04:05:09;-16002.16;;;2.42;99.35
65157;BME280;52745;49.794;18.258;2022-12-07T04:07:37;-16002.72;;;2.44;99.85
65157;BME280;52745;49.794;18.258;2022-12-07T04:10:04;-16003.94;;;2.49;99.36
65157;BME280;52745;49.794;18.258;2022-12-07T04:12:31;-16004.50;;;2.51;99.10
65157;BME280;52745;49.794;18.258;2022-12-07T04:14:58;-16004.22;;;2.50;98.92
65157;BME280;52745;49.794;18.258;2022-12-07T04:17:24;-16003.00;;;2.45;99.17
65157;BME280;52745;49.794;18.258;2022-12-07T04:19:51;-16004.50;;;2.51;98.68
65157;BME280;52745;49.794;18.258;2022-12-07T04:22:21;-16004.78;;;2.52;98.93
65157;BME280;52745;49.794;18.258;2022-12-07T04:24:47;-16004.78;;;2.52;98.62
65157;BME280;52745;49.794;18.258;2022-12-07T04:27:14;-16002.03;;;2.42;98.74
65157;BME280;52745;49.794;18.258;2022-12-07T04:29:40;-16000.81;;;2.37;98.89
65157;BME280;52745;49.794;18.258;2022-12-07T04:32:07;-16001.63;;;2.40;99.01
65157;BME280;52745;49.794;18.258;2022-12-07T04:34:34;-16003.41;;;2.47;98.78
65157;BME280;52745;49.794;18.258;2022-12-07T04:37:01;-16002.84;;;2.45;98.58
65157;BME280;52745;49.794;18.258;2022-12-07T04:39:30;-16005.03;;;2.53;98.20
65157;BME280;52745;49.794;18.258;2022-12-07T04:41:57;-16006.69;;;2.59;97.79
65157;BME280;52745;49.794;18.258;2022-12-07T04:44:26;-16008.34;;;2.65;97.49
65157;BME280;52745;49.794;18.258;2022-12-07T04:46:54;-16009.44;;;2.69;97.08
65157;BME280;52745;49.794;18.258;2022-12-07T04:49:23;-16006.41;;;2.58;97.49
65157;BME280;52745;49.794;18.258;2022-12-07T04:51:50;-16003.69;;;2.48;97.57
65157;BME280;52745;49.794;18.258;2022-12-07T04:54:17;-16004.50;;;2.51;98.24
65157;BME280;52745;49.794;18.258;2022-12-07T04:56:44;-16004.63;;;2.52;97.94
65157;BME280;52745;49.794;18.258;2022-12-07T04:59:11;-16003.81;;;2.48;97.97
65157;BME280;52745;49.794;18.258;2022-12-07T05:01:39;-16003.94;;;2.49;97.66
65157;BME280;52745;49.794;18.258;2022-12-07T05:04:05;-16000.94;;;2.38;97.35
65157;BME280;52745;49.794;18.258;2022-12-07T05:06:32;-16002.03;;;2.42;97.71
65157;BME280;52745;49.794;18.258;2022-12-07T05:08:59;-16004.22;;;2.50;97.78
65157;BME280;52745;49.794;18.258;2022-12-07T05:11:25;-16001.63;;;2.40;97.16
65157;BME280;52745;49.794;18.258;2022-12-07T05:14:22;-16002.84;;;2.45;97.44
65157;BME280;52745;49.794;18.258;2022-12-07T05:16:50;-16003.00;;;2.45;96.89
65157;BME280;52745;49.794;18.258;2022-12-07T05:19:17;-15999.97;;;2.34;97.07
65157;BME280;52745;49.794;18.258;2022-12-07T05:21:45;-16001.50;;;2.40;97.35
65157;BME280;52745;49.794;18.258;2022-12-07T05:24:12;-15999.84;;;2.34;97.23
65157;BME280;52745;49.794;18.258;2022-12-07T05:26:40;-16001.75;;;2.41;96.91
65157;BME280;52745;49.794;18.258;2022-12-07T05:29:07;-16000.13;;;2.35;96.94
65157;BME280;52745;49.794;18.258;2022-12-07T05:31:34;-16002.03;;;2.42;96.97
65157;BME280;52745;49.794;18.258;2022-12-07T05:34:01;-16002.31;;;2.43;96.91
65157;BME280;52745;49.794;18.258;2022-12-07T05:36:28;-16000.53;;;2.36;96.92
65157;BME280;52745;49.794;18.258;2022-12-07T05:38:54;-15999.84;;;2.34;97.15
65157;BME280;52745;49.794;18.258;2022-12-07T05:41:21;-15999.97;;;2.34;96.88
65157;BME280;52745;49.794;18.258;2022-12-07T05:44:06;-15998.06;;;2.27;97.46
65157;BME280;52745;49.794;18.258;2022-12-07T05:46:33;-15997.94;;;2.26;97.97
65157;BME280;52745;49.794;18.258;2022-12-07T05:48:59;-15999.56;;;2.33;97.91
65157;BME280;52745;49.794;18.258;2022-12-07T05:51:26;-15998.19;;;2.27;97.81
65157;BME280;52745;49.794;18.258;2022-12-07T05:53:53;-15996.56;;;2.21;98.29
65157;BME280;52745;49.794;18.258;2022-12-07T05:56:19;-15997.09;;;2.23;98.54
65157;BME280;52745;49.794;18.258;2022-12-07T05:58:46;-15997.66;;;2.25;98.21
65157;BME280;52745;49.794;18.258;2022-12-07T06:01:31;-15997.09;;;2.23;98.39
65157;BME280;52745;49.794;18.258;2022-12-07T06:03:58;-15996.69;;;2.22;98.36
65157;BME280;52745;49.794;18.258;2022-12-07T06:06:24;-15997.94;;;2.26;98.55
65157;BME280;52745;49.794;18.258;2022-12-07T06:08:51;-15999.97;;;2.34;98.48
65157;BME280;52745;49.794;18.258;2022-12-07T06:11:17;-15997.38;;;2.24;98.47
65157;BME280;52745;49.794;18.258;2022-12-07T06:14:02;-15997.94;;;2.26;97.71
65157;BME280;52745;49.794;18.258;2022-12-07T06:16:29;-15998.06;;;2.27;97.91
65157;BME280;52745;49.794;18.258;2022-12-07T06:18:55;-15997.09;;;2.23;98.28
65157;BME280;52745;49.794;18.258;2022-12-07T06:21:22;-15997.50;;;2.25;98.27
65157;BME280;52745;49.794;18.258;2022-12-07T06:23:49;-15995.31;;;2.17;98.36
65157;BME280;52745;49.794;18.258;2022-12-07T06:26:16;-15995.19;;;2.16;98.22
65157;BME280;52745;49.794;18.258;2022-12-07T06:28:42;-15994.50;;;2.14;98.23
65157;BME280;52745;49.794;18.258;2022-12-07T06:31:09;-15996.16;;;2.20;98.30
65157;BME280;52745;49.794;18.258;2022-12-07T06:33:36;-15993.81;;;2.11;98.17
65157;BME280;52745;49.794;18.258;2022-12-07T06:36:02;-15991.91;;;2.04;98.11
65157;BME280;52745;49.794;18.258;2022-12-07T06:38:29;-15992.31;;;2.05;97.89
65157;BME280;52745;49.794;18.258;2022-12-07T06:40:55;-15991.50;;;2.02;98.16
65157;BME280;52745;49.794;18.258;2022-12-07T06:43:22;-15992.44;;;2.06;97.65
65157;BME280;52745;49.794;18.258;2022-12-07T06:45:49;-15993.53;;;2.10;97.36
65157;BME280;52745;49.794;18.258;2022-12-07T06:48:15;-15992.44;;;2.06;97.48
65157;BME280;52745;49.794;18.258;2022-12-07T06:50:45;-15991.91;;;2.04;97.29
65157;BME280;52745;49.794;18.258;2022-12-07T06:53:13;-15992.19;;;2.05;97.40
65157;BME280;52745;49.794;18.258;2022-12-07T06:55:40;-15991.91;;;2.04;97.58
65157;BME280;52745;49.794;18.258;2022-12-07T06:58:07;-15992.84;;;2.07;97.54
65157;BME280;52745;49.794;18.258;2022-12-07T07:00:34;-15992.19;;;2.05;97.65
65157;BME280;52745;49.794;18.258;2022-12-07T07:03:01;-15989.72;;;1.96;97.81
65157;BME280;52745;49.794;18.258;2022-12-07T07:05:28;-15991.63;;;2.03;97.36
65157;BME280;52745;49.794;18.258;2022-12-07T07:07:54;-15990.41;;;1.98;97.80
65157;BME280;52745;49.794;18.258;2022-12-07T07:10:21;-15991.22;;;2.01;97.54
65157;BME280;52745;49.794;18.258;2022-12-07T07:12:47;-15991.34;;;2.02;97.59
65157;BME280;52745;49.794;18.258;2022-12-07T07:15:14;-15991.91;;;2.04;97.29
65157;BME280;52745;49.794;18.258;2022-12-07T07:17:40;-15991.63;;;2.03;97.33
65157;BME280;52745;49.794;18.258;2022-12-07T07:20:07;-15991.75;;;2.03;97.42
65157;BME280;52745;49.794;18.258;2022-12-07T07:22:34;-15989.72;;;1.96;97.78
65157;BME280;52745;49.794;18.258;2022-12-07T07:25:01;-15993.00;;;2.08;97.55
65157;BME280;52745;49.794;18.258;2022-12-07T07:27:27;-15993.41;;;2.10;97.01
65157;BME280;52745;49.794;18.258;2022-12-07T07:29:54;-15992.59;;;2.06;97.15
65157;BME280;52745;49.794;18.258;2022-12-07T07:32:20;-15990.81;;;2.00;96.73
65157;BME280;52745;49.794;18.258;2022-12-07T07:34:48;-15991.22;;;2.01;96.88
65157;BME280;52745;49.794;18.258;2022-12-07T07:37:15;-15989.84;;;1.96;97.16
65157;BME280;52745;49.794;18.258;2022-12-07T07:39:41;-15990.81;;;2.00;97.10
65157;BME280;52745;49.794;18.258;2022-12-07T07:42:08;-15990.53;;;1.99;96.39
65157;BME280;52745;49.794;18.258;2022-12-07T07:44:34;-15989.72;;;1.96;97.30
65157;BME280;52745;49.794;18.258;2022-12-07T07:47:01;-16000.25;;;2.35;100.00
65157;BME280;52745;49.794;18.258;2022-12-07T07:49:28;-16005.59;;;2.55;100.00
65157;BME280;52745;49.794;18.258;2022-12-07T07:51:55;-16012.03;;;2.79;100.00
65157;BME280;52745;49.794;18.258;2022-12-07T07:54:22;-16011.63;;;2.78;99.32
65157;BME280;52745;49.794;18.258;2022-12-07T07:56:48;-16011.34;;;2.77;96.86
65157;BME280;52745;49.794;18.258;2022-12-07T07:59:15;-16012.97;;;2.83;97.36
65157;BME280;52745;49.794;18.258;2022-12-07T08:01:42;-16015.19;;;2.91;95.74
65157;BME280;52745;49.794;18.258;2022-12-07T08:04:08;-16018.47;;;3.03;94.62
65157;BME280;52745;49.794;18.258;2022-12-07T08:06:35;-16019.84;;;3.08;94.61
65157;BME280;52745;49.794;18.258;2022-12-07T08:09:02;-16016.69;;;2.97;92.66
65157;BME280;52745;49.794;18.258;2022-12-07T08:11:29;-16017.50;;;3.00;92.65
65157;BME280;52745;49.794;18.258;2022-12-07T08:13:56;-16015.19;;;2.91;92.58
65157;BME280;52745;49.794;18.258;2022-12-07T08:16:22;-16015.19;;;2.91;92.87
65157;BME280;52745;49.794;18.258;2022-12-07T08:18:49;-16014.91;;;2.90;92.30
65157;BME280;52745;49.794;18.258;2022-12-07T08:21:16;-16013.94;;;2.86;92.27
65157;BME280;52745;49.794;18.258;2022-12-07T08:23:43;-16014.91;;;2.90;92.44
65157;BME280;52745;49.794;18.258;2022-12-07T08:26:12;-16011.06;;;2.76;92.00
65157;BME280;52745;49.794;18.258;2022-12-07T08:28:39;-16013.66;;;2.85;92.62
65157;BME280;52745;49.794;18.258;2022-12-07T08:31:12;-16015.72;;;2.93;91.83
65157;BME280;52745;49.794;18.258;2022-12-07T08:33:40;-16013.25;;;2.84;91.83
65157;BME280;52745;49.794;18.258;2022-12-07T08:36:09;-16017.38;;;2.99;91.78
65157;BME280;52745;49.794;18.258;2022-12-07T08:38:36;-16018.19;;;3.02;91.65
65157;BME280;52745;49.794;18.258;2022-12-07T08:41:04;-16012.16;;;2.80;91.69
65157;BME280;52745;49.794;18.258;2022-12-07T08:43:31;-16014.91;;;2.90;91.89
65157;BME280;52745;49.794;18.258;2022-12-07T08:46:06;-16011.22;;;2.76;91.35
65157;BME280;52745;49.794;18.258;2022-12-07T08:48:36;-16011.63;;;2.78;91.64
65157;BME280;52745;49.794;18.258;2022-12-07T08:51:03;-16012.44;;;2.81;91.25
65157;BME280;52745;49.794;18.258;2022-12-07T08:53:31;-16011.06;;;2.76;91.75
65157;BME280;52745;49.794;18.258;2022-12-07T08:55:58;-16009.97;;;2.72;91.28
65157;BME280;52745;49.794;18.258;2022-12-07T08:58:25;-16009.69;;;2.71;91.25
65157;BME280;52745;49.794;18.258;2022-12-07T09:00:51;-16013.25;;;2.84;89.66
65157;BME280;52745;49.794;18.258;2022-12-07T09:03:18;-16013.94;;;2.86;89.97
65157;BME280;52745;49.794;18.258;2022-12-07T09:05:44;-16013.94;;;2.86;89.96
65157;BME280;52745;49.794;18.258;2022-12-07T09:08:11;-16013.66;;;2.85;89.92
65157;BME280;52745;49.794;18.258;2022-12-07T09:10:38;-16013.25;;;2.84;90.16
65157;BME280;52745;49.794;18.258;2022-12-07T09:13:04;-16013.25;;;2.84;90.05
65157;BME280;52745;49.794;18.258;2022-12-07T09:15:31;-16017.09;;;2.98;89.72
65157;BME280;52745;49.794;18.258;2022-12-07T09:17:58;-16019.56;;;3.07;88.97
65157;BME280;52745;49.794;18.258;2022-12-07T09:20:24;-16019.41;;;3.07;88.18
65157;BME280;52745;49.794;18.258;2022-12-07T09:22:51;-16020.25;;;3.10;88.49
65157;BME280;52745;49.794;18.258;2022-12-07T09:25:17;-16022.84;;;3.20;88.14
65157;BME280;52745;49.794;18.258;2022-12-07T09:27:44;-16021.34;;;3.14;88.17
65157;BME280;52745;49.794;18.258;2022-12-07T09:30:11;-16019.84;;;3.08;87.71
65157;BME280;52745;49.794;18.258;2022-12-07T09:32:38;-16022.03;;;3.17;87.88
65157;BME280;52745;49.794;18.258;2022-12-07T09:35:04;-16024.63;;;3.26;88.04
65157;BME280;52745;49.794;18.258;2022-12-07T09:37:32;-16026.66;;;3.34;86.98
65157;BME280;52745;49.794;18.258;2022-12-07T09:40:02;-16025.84;;;3.31;86.79
65157;BME280;52745;49.794;18.258;2022-12-07T09:44:59;-16023.94;;;3.24;87.42
65157;BME280;52745;49.794;18.258;2022-12-07T09:47:27;-16023.94;;;3.24;87.74
65157;BME280;52745;49.794;18.258;2022-12-07T09:50:03;-16024.75;;;3.27;87.65
65157;BME280;52745;49.794;18.258;2022-12-07T09:52:30;-16025.03;;;3.28;86.87
65157;BME280;52745;49.794;18.258;2022-12-07T09:54:58;-16022.28;;;3.18;86.33
65157;BME280;52745;49.794;18.258;2022-12-07T09:57:30;-16022.28;;;3.18;86.86
65157;BME280;52745;49.794;18.258;2022-12-07T10:00:01;-16025.44;;;3.29;87.23
65157;BME280;52745;49.794;18.258;2022-12-07T10:02:35;-16023.66;;;3.23;86.45
65157;BME280;52745;49.794;18.258;2022-12-07T10:05:06;-16022.28;;;3.18;86.84
65157;BME280;52745;49.794;18.258;2022-12-07T10:07:33;-16023.94;;;3.24;86.92
65157;BME280;52745;49.794;18.258;2022-12-07T10:10:02;-16023.53;;;3.22;87.06
65157;BME280;52745;49.794;18.258;2022-12-07T10:12:29;-16024.88;;;3.27;87.43
65157;BME280;52745;49.794;18.258;2022-12-07T10:15:01;-16025.84;;;3.31;87.54
65157;BME280;52745;49.794;18.258;2022-12-07T10:17:37;-16031.19;;;3.51;87.17
65157;BME280;52745;49.794;18.258;2022-12-07T10:20:19;-16032.97;;;3.58;86.14
65157;BME280;52745;49.794;18.258;2022-12-07T10:22:56;-16033.78;;;3.61;86.49
65157;BME280;52745;49.794;18.258;2022-12-07T10:25:27;-16030.09;;;3.47;86.82
65157;BME280;52745;49.794;18.258;2022-12-07T10:30:29;-16032.00;;;3.54;87.76
65157;BME280;52745;49.794;18.258;2022-12-07T10:32:58;-16028.03;;;3.39;88.85
65157;BME280;52745;49.794;18.258;2022-12-07T10:35:29;-16024.22;;;3.25;90.36
65157;BME280;52745;49.794;18.258;2022-12-07T10:37:58;-16027.75;;;3.38;91.23
65157;BME280;52745;49.794;18.258;2022-12-07T10:40:34;-16025.59;;;3.30;90.96
65157;BME280;52745;49.794;18.258;2022-12-07T10:48:48;-16028.59;;;3.41;91.35
65157;BME280;52745;49.794;18.258;2022-12-07T10:53:56;-16033.09;;;3.58;91.80
65157;BME280;52745;49.794;18.258;2022-12-07T10:59:30;-16040.91;;;3.87;90.59
65157;BME280;52745;49.794;18.258;2022-12-07T11:05:03;-16038.16;;;3.77;88.89
65157;BME280;52745;49.794;18.258;2022-12-07T11:11:01;-16047.06;;;4.10;87.26
65157;BME280;52745;49.794;18.258;2022-12-07T11:14:28;-16053.50;;;4.34;85.12
65157;BME280;52745;49.794;18.258;2022-12-07T11:16:45;-16055.13;;;4.41;84.66
65157;BME280;52745;49.794;18.258;2022-12-07T11:19:40;-16086.59;;;5.58;80.35
65157;BME280;52745;49.794;18.258;2022-12-07T11:22:29;-16115.84;;;6.68;75.42
65157;BME280;52745;49.794;18.258;2022-12-07T11:33:31;-16083.16;;;5.46;74.88
65157;BME280;52745;49.794;18.258;2022-12-07T11:39:09;-16059.09;;;4.55;77.49
65157;BME280;52745;49.794;18.258;2022-12-07T11:41:39;-16055.81;;;4.43;77.71
65157;BME280;52745;49.794;18.258;2022-12-07T11:44:08;-16073.72;;;5.10;77.24
65157;BME280;52745;49.794;18.258;2022-12-07T11:47:07;-16107.50;;;6.37;72.63
65157;BME280;52745;49.794;18.258;2022-12-07T11:49:43;-16120.34;;;6.85;71.01
65157;BME280;52745;49.794;18.258;2022-12-07T11:52:18;-16103.81;;;6.23;71.95
65157;BME280;52745;49.794;18.258;2022-12-07T11:54:49;-16106.81;;;6.34;71.22
65157;BME280;52745;49.794;18.258;2022-12-07T11:57:26;-16124.56;;;7.01;69.38
65157;BME280;52745;49.794;18.258;2022-12-07T12:00:02;-16125.00;;;7.02;69.38
65157;BME280;52745;49.794;18.258;2022-12-07T12:05:26;-16133.59;;;7.35;68.03
65157;BME280;52745;49.794;18.258;2022-12-07T12:10:35;-16134.41;;;7.38;67.96
65157;BME280;52745;49.794;18.258;2022-12-07T12:18:51;-16088.09;;;5.64;71.38
65157;BME280;52745;49.794;18.258;2022-12-07T12:21:29;-16082.22;;;5.42;74.08
65157;BME280;52745;49.794;18.258;2022-12-07T12:24:03;-16076.47;;;5.21;74.95
65157;BME280;52745;49.794;18.258;2022-12-07T12:26:34;-16063.88;;;4.73;77.05
65157;BME280;52745;49.794;18.258;2022-12-07T12:29:06;-16063.34;;;4.71;77.48
65157;BME280;52745;49.794;18.258;2022-12-07T12:31:41;-16077.84;;;5.26;75.68
65157;BME280;52745;49.794;18.258;2022-12-07T12:34:39;-16085.63;;;5.55;74.51
65157;BME280;52745;49.794;18.258;2022-12-07T12:45:27;-16093.28;;;5.84;72.19
65157;BME280;52745;49.794;18.258;2022-12-07T12:52:54;-16083.84;;;5.48;73.86
65157;BME280;52745;49.794;18.258;2022-12-07T12:55:43;-16093.69;;;5.85;72.66
65157;BME280;52745;49.794;18.258;2022-12-07T13:03:55;-16070.03;;;4.96;70.09
65157;BME280;52745;49.794;18.258;2022-12-07T13:08:58;-16061.41;;;4.64;67.18
65157;BME280;52745;49.794;18.258;2022-12-07T13:17:04;-16046.38;;;4.08;69.30
65157;BME280;52745;49.794;18.258;2022-12-07T13:27:37;-16040.63;;;3.86;70.84
65157;BME280;52745;49.794;18.258;2022-12-07T13:30:15;-16041.44;;;3.89;71.47
65157;BME280;52745;49.794;18.258;2022-12-07T13:32:42;-16041.31;;;3.89;71.91
65157;BME280;52745;49.794;18.258;2022-12-07T13:37:54;-16036.94;;;3.72;73.04
65157;BME280;52745;49.794;18.258;2022-12-07T13:40:22;-16035.03;;;3.65;71.40
65157;BME280;52745;49.794;18.258;2022-12-07T13:43:12;-16032.84;;;3.57;72.62
65157;BME280;52745;49.794;18.258;2022-12-07T13:45:41;-16032.16;;;3.55;70.88
65157;BME280;52745;49.794;18.258;2022-12-07T13:48:47;-16032.41;;;3.56;69.29
65157;BME280;52745;49.794;18.258;2022-12-07T13:51:24;-16033.25;;;3.59;68.41
65157;BME280;52745;49.794;18.258;2022-12-07T13:53:54;-16031.59;;;3.52;68.90
65157;BME280;52745;49.794;18.258;2022-12-07T13:56:25;-16030.38;;;3.48;69.26
65157;BME280;52745;49.794;18.258;2022-12-07T13:58:54;-16030.91;;;3.50;69.29
65157;BME280;52745;49.794;18.258;2022-12-07T14:01:24;-16030.09;;;3.47;69.37
65157;BME280;52745;49.794;18.258;2022-12-07T14:03:50;-16031.19;;;3.51;69.06
65157;BME280;52745;49.794;18.258;2022-12-07T14:06:24;-16030.09;;;3.47;68.95
65157;BME280;52745;49.794;18.258;2022-12-07T14:09:27;-16029.00;;;3.43;69.78
65157;BME280;52745;49.794;18.258;2022-12-07T14:11:56;-16026.66;;;3.34;70.19
65157;BME280;52745;49.794;18.258;2022-12-07T14:14:26;-16027.34;;;3.37;70.87
65157;BME280;52745;49.794;18.258;2022-12-07T14:17:23;-16025.59;;;3.30;71.00
65157;BME280;52745;49.794;18.258;2022-12-07T14:20:01;-16022.97;;;3.20;70.81
65157;BME280;52745;49.794;18.258;2022-12-07T14:22:34;-16022.03;;;3.17;71.35
65157;BME280;52745;49.794;18.258;2022-12-07T14:28:09;-16020.94;;;3.13;71.00
65157;BME280;52745;49.794;18.258;2022-12-07T14:30:36;-16020.66;;;3.11;71.62
65157;BME280;52745;49.794;18.258;2022-12-07T14:33:04;-16018.47;;;3.03;72.12
65157;BME280;52745;49.794;18.258;2022-12-07T14:35:32;-16017.63;;;3.00;72.54
65157;BME280;52745;49.794;18.258;2022-12-07T14:37:59;-16017.09;;;2.98;72.97
65157;BME280;52745;49.794;18.258;2022-12-07T14:40:27;-16013.81;;;2.86;73.60
65157;BME280;52745;49.794;18.258;2022-12-07T14:43:08;-16012.16;;;2.80;74.26
65157;BME280;52745;49.794;18.258;2022-12-07T14:45:35;-16008.47;;;2.66;74.61
65157;BME280;52745;49.794;18.258;2022-12-07T14:48:02;-16008.06;;;2.64;74.84
65157;BME280;52745;49.794;18.258;2022-12-07T14:50:29;-16005.31;;;2.54;75.79
65157;BME280;52745;49.794;18.258;2022-12-07T14:53:00;-16005.31;;;2.54;76.19